Terminal Aerodrome Forecast
Issued by NWS Portland, OR

Home | Current Version | Previous Version | Text Only | Print | Product List | Glossary On
Versions: 1 2 3 4 5 6 7 8 9 10 11 12 13 14 15 16 17
000
FTUS46 KPQR 271323 AAA
TAFTTD
TAF AMD
KTTD 271323Z 2713/2812 26005KT P6SM VCSH SCT025 BKN045
      TEMPO 2714/2718 6SM -SHRA BR BKN025
     FM272100 32008KT P6SM VCSH BKN045
     FM280600 VRB04KT P6SM BKN040 OVC090=

USA.gov is the U.S. government's official web portal to all federal, state and local government web resources and services.